Aérodrome :
LOGIN :

S'inscrire | Disclaimer

   EN    FR    IT 

 










Légende :    VFR   VFR Marginal   IFR   IFR Intensif   IFR Très Intensif
Visi : 
Plafond : 
>= 8 km
>= 3000ft
5 à 8 km
1000 à 3000 ft
1500m à 5 km
500 à 1000 ft
800 à 1500m
200 à 500 ft
< 800m
< 200 ft
Symboles :   Orages  Brouillard  Fortes neiges  Fortes précipitations  Vent > 20 kt
SIGMETs :   Divers  Orages  Givrage  Turbulence  Onde Orograph.  Cendres Volcan.







- Altitude de l'aérodrome : 1504 ft
- Code IATA : PNA


LEPP - Noain Pamplona

DERNIER METAR :
  • 221730Z 22007KT 170V240 9999 FEW045CB 20/12 Q1017

METARs EXPIRÉS :
  • 221700Z 17003KT 080V220 CAVOK 21/09 Q1016
  • 221630Z 19003KT 150V260 CAVOK 22/09 Q1016
  • 221600Z 19003KT 120V240 CAVOK 22/10 Q1016
  • 221530Z 17003KT CAVOK 22/08 Q1016
  • 221500Z 19006KT 150V220 CAVOK 22/08 Q1016

TAF TAF LEPP
Valide du 22 à 15h jusqu'au 23 à 15h UTC


221400Z 2215/2315 18005KT CAVOK TX24/2215Z TN10/2306Z
PROB40
TEMPO 2215/2309 SCT030TCU
PROB40
TEMPO 2218/2308 3000 SHRA TS SCT030TCU SCT040CB
Pas de NOTAMs connus pour ce terrain.
3 SIGMETs publiés pour la FIR Madrid (LECM) :
 
Orages noyés dans la masse
LECM SIGMET 9 VALID 221600/221800 LEVA
LECM MADRID FIR/UIR EMBD TS OBS AT 1545Z WI N42 W009 - N4320 W008 - N4150 W00050 - N4040 W00140 - N4150 W00610 - N42 W009 TOP FL360 MOV NNE NC=
Orages noyés dans la masse
LECM SIGMET 11 VALID 221800/222000 LEVA
LECM MADRID FIR/UIR EMBD TS OBS AT 1738Z WI N4331 W00621 - N42 W00644 - N4159 W00849 - N4334 W00815 - N4331 W00621 TOP FL360 MOV NNE 20KT NC=
Orages noyés dans la masse
LECM SIGMET 10 VALID 221715/221900 LEVA
LECM MADRID FIR/UIR EMBD TS OBS AT 1700Z WI N4315 W00705 - N4324 W00357 - N4230 W00105 - N4157 W00113 - N4315 W00705 TOP FL360 MOV NNE 20KT NC=



MET'MAP, la Météo Aéronautique d'un coup d'oeil ! - Copyright ORBIFLY Décembre 2007 - Disclaimer

ORBIFLY MET'MAP TEAM :

Programmation & Développement : Alexandra Zaïnal
Conception & Développement : Baudouin d'Aumeries
Co-Programmation & Développement : Marc-Olivier Méhu
Soutien technique & logistique : Manuel Goepfert

Contact : metmap@orbifly.com




SOURCES & CREDITS :

   NOAA